Time;durP1;ratioP1;P1;durP2;ratioP2;P2;SDS_P1;SDS_P2;PMS_P1;PMS_P2;Temp;Humidity;BMP_temperature;BMP_pressure;BME280_temperature;BME280_humidity;BME280_pressure;Samples;Min_cycle;Max_cycle;Signal;HPM_P1;HPM_P2
2023/01/09 00:00:49;;;;;;;0.85;0.75;;;16.40;56.20;;;;;;5064054;27;45180;-78
2023/01/09 00:03:16;;;;;;;0.70;0.70;;;16.40;56.20;;;;;;5063433;28;46629;-77
2023/01/09 00:05:43;;;;;;;0.70;0.70;;;16.40;56.30;;;;;;5063716;28;45316;-77
2023/01/09 00:08:10;;;;;;;0.90;0.60;;;16.40;56.30;;;;;;5063779;28;45292;-78
2023/01/09 00:10:36;;;;;;;2.13;0.60;;;16.40;56.30;;;;;;5064129;28;45119;-77
2023/01/09 00:13:03;;;;;;;0.60;0.60;;;16.40;56.30;;;;;;5063295;28;45229;-77
2023/01/09 00:15:31;;;;;;;0.60;0.60;;;16.40;56.30;;;;;;5063656;28;45232;-77
2023/01/09 00:17:59;;;;;;;0.63;0.57;;;16.40;56.20;;;;;;5063674;28;45315;-77
2023/01/09 00:20:26;;;;;;;1.73;0.57;;;16.40;56.20;;;;;;5063586;28;45229;-78
2023/01/09 00:22:52;;;;;;;0.63;0.50;;;16.40;56.20;;;;;;5063327;27;45298;-77
2023/01/09 00:25:21;;;;;;;0.57;0.57;;;16.40;56.20;;;;;;5063085;28;45239;-77
2023/01/09 00:27:48;;;;;;;0.57;0.57;;;16.40;56.20;;;;;;5062546;28;45333;-78
2023/01/09 00:30:15;;;;;;;0.50;0.50;;;16.40;56.10;;;;;;5063572;27;45298;-77
2023/01/09 00:32:42;;;;;;;0.70;0.60;;;16.40;56.20;;;;;;5063177;27;45344;-77
2023/01/09 00:35:15;;;;;;;0.60;0.60;;;16.40;56.20;;;;;;5063247;27;45204;-77
2023/01/09 00:37:42;;;;;;;0.60;0.60;;;16.40;56.10;;;;;;5063169;27;45240;-77
2023/01/09 00:40:10;;;;;;;0.70;0.60;;;16.40;56.10;;;;;;5066307;28;45191;-77
2023/01/09 00:42:37;;;;;;;1.10;0.60;;;16.40;56.10;;;;;;5066158;28;46427;-77
2023/01/09 00:45:06;;;;;;;0.60;0.60;;;16.40;56.10;;;;;;5065880;28;45296;-77
2023/01/09 00:47:33;;;;;;;0.50;0.50;;;16.40;56.10;;;;;;5066293;28;45218;-77
2023/01/09 00:50:00;;;;;;;0.95;0.55;;;16.40;56.10;;;;;;5063854;28;45134;-77
2023/01/09 00:52:30;;;;;;;0.63;0.50;;;16.40;56.10;;;;;;5065826;28;45471;-77
2023/01/09 00:54:57;;;;;;;0.60;0.60;;;16.40;56.10;;;;;;5066056;28;45309;-77
2023/01/09 00:57:24;;;;;;;0.60;0.60;;;16.40;56.20;;;;;;5066096;28;45185;-77
2023/01/09 00:59:51;;;;;;;0.73;0.57;;;16.40;56.20;;;;;;5066356;28;45382;-77
2023/01/09 01:02:18;;;;;;;1.38;0.50;;;16.30;56.20;;;;;;5065884;28;45293;-77
2023/01/09 01:07:39;;;;;;;0.60;0.47;;;16.30;56.10;;;;;;5063432;28;45281;-77
2023/01/09 01:10:09;;;;;;;0.40;0.40;;;16.30;56.20;;;;;;5065931;28;45407;-77
2023/01/09 01:12:36;;;;;;;0.55;0.55;;;16.30;56.20;;;;;;5065708;27;45226;-75
2023/01/09 01:15:03;;;;;;;0.75;0.40;;;16.30;56.20;;;;;;5065565;28;45316;-75
2023/01/09 01:17:30;;;;;;;0.60;0.60;;;16.30;56.20;;;;;;5065818;27;45307;-75
2023/01/09 01:19:58;;;;;;;0.52;0.52;;;16.30;56.20;;;;;;5065832;28;45232;-75
2023/01/09 01:22:25;;;;;;;0.40;0.40;;;16.30;56.20;;;;;;5064924;28;45439;-73
2023/01/09 01:24:53;;;;;;;1.38;0.50;;;16.30;56.20;;;;;;5065185;27;45209;-75
2023/01/09 01:27:20;;;;;;;0.50;0.50;;;16.30;56.90;;;;;;5065461;28;45240;-77
2023/01/09 01:29:47;;;;;;;0.45;0.45;;;16.30;56.30;;;;;;5065727;27;45252;-78
2023/01/09 01:32:14;;;;;;;0.50;0.50;;;16.30;56.20;;;;;;5065546;28;46636;-77
2023/01/09 01:34:44;;;;;;;0.52;0.52;;;16.40;56.10;;;;;;5065274;28;45255;-78
2023/01/09 01:37:10;;;;;;;1.85;0.60;;;16.50;56.00;;;;;;5065832;27;45253;-77
2023/01/09 01:39:37;;;;;;;0.40;0.40;;;16.50;55.80;;;;;;5065552;28;45403;-78
2023/01/09 01:42:06;;;;;;;0.52;0.52;;;16.60;55.70;;;;;;5065562;27;46401;-78
2023/01/09 01:44:56;;;;;;;0.50;0.50;;;16.60;55.50;;;;;;5065375;28;45296;-77
2023/01/09 01:47:24;;;;;;;0.35;0.35;;;16.70;55.40;;;;;;5065483;27;45201;-77
2023/01/09 01:49:52;;;;;;;0.73;0.40;;;16.70;55.30;;;;;;5065119;28;45456;-76
2023/01/09 01:52:19;;;;;;;0.50;0.40;;;16.70;55.30;;;;;;5064759;28;46743;-76
2023/01/09 01:54:45;;;;;;;0.50;0.50;;;16.70;55.20;;;;;;5065123;28;45375;-77
2023/01/09 01:57:14;;;;;;;0.88;0.50;;;16.70;55.20;;;;;;5065253;28;45478;-76
2023/01/09 01:59:43;;;;;;;0.50;0.50;;;16.70;55.20;;;;;;5065423;28;45270;-76
2023/01/09 02:02:10;;;;;;;0.50;0.50;;;16.70;55.20;;;;;;5065135;27;46658;-76
2023/01/09 02:04:38;;;;;;;0.68;0.40;;;16.70;55.20;;;;;;5065020;28;45410;-77
2023/01/09 02:07:07;;;;;;;0.40;0.40;;;16.70;55.20;;;;;;5065479;28;45316;-78
2023/01/09 02:09:34;;;;;;;0.50;0.50;;;16.70;55.20;;;;;;5065534;27;45402;-75
2023/01/09 02:12:01;;;;;;;0.52;0.50;;;16.70;55.30;;;;;;5064990;28;45337;-77
2023/01/09 02:14:31;;;;;;;0.73;0.50;;;16.60;55.20;;;;;;5064727;27;45393;-77
2023/01/09 02:17:01;;;;;;;0.40;0.40;;;16.60;55.20;;;;;;5064638;28;45160;-77
2023/01/09 02:19:42;;;;;;;0.50;0.50;;;16.60;55.90;;;;;;5064704;28;45314;-77
2023/01/09 02:22:12;;;;;;;0.45;0.45;;;16.60;55.30;;;;;;5064141;27;45461;-76
2023/01/09 02:24:57;;;;;;;0.45;0.45;;;16.60;55.30;;;;;;5064257;28;45132;-77
2023/01/09 02:27:37;;;;;;;0.32;0.32;;;16.60;55.30;;;;;;5064003;27;45200;-76
2023/01/09 02:30:16;;;;;;;0.50;0.50;;;16.60;55.40;;;;;;5065192;28;45192;-76
2023/01/09 02:33:05;;;;;;;0.40;0.40;;;16.60;55.40;;;;;;5064843;28;47275;-77
2023/01/09 02:35:41;;;;;;;0.60;0.55;;;16.60;55.40;;;;;;5064694;28;45247;-77
2023/01/09 02:38:13;;;;;;;0.50;0.50;;;16.50;55.40;;;;;;5064723;28;45174;-77
2023/01/09 02:40:43;;;;;;;0.38;0.38;;;16.50;55.40;;;;;;5064986;27;45227;-77
2023/01/09 02:43:10;;;;;;;1.17;0.45;;;16.50;55.40;;;;;;5064516;27;45435;-77
2023/01/09 02:45:39;;;;;;;0.75;0.30;;;16.50;55.40;;;;;;5064270;28;45366;-76
2023/01/09 02:48:06;;;;;;;0.40;0.40;;;16.50;55.50;;;;;;5063903;28;45176;-77
2023/01/09 02:50:36;;;;;;;0.40;0.40;;;16.50;55.50;;;;;;5064640;27;45192;-77
2023/01/09 02:53:17;;;;;;;0.43;0.43;;;16.50;55.50;;;;;;5064611;27;46446;-77
2023/01/09 02:56:10;;;;;;;0.57;0.43;;;16.50;55.50;;;;;;5064516;28;45189;-77
2023/01/09 02:58:49;;;;;;;0.30;0.30;;;16.40;55.50;;;;;;5060754;28;45266;-76
2023/01/09 03:01:23;;;;;;;0.30;0.30;;;16.40;55.50;;;;;;5064730;28;45453;-77
2023/01/09 03:03:52;;;;;;;0.40;0.40;;;16.40;55.50;;;;;;5064108;28;46600;-77
2023/01/09 03:06:21;;;;;;;0.43;0.43;;;16.40;55.50;;;;;;5064149;28;45452;-76
2023/01/09 03:08:49;;;;;;;1.10;0.40;;;16.40;55.60;;;;;;5064318;27;45179;-75
2023/01/09 03:11:16;;;;;;;0.30;0.30;;;16.40;55.60;;;;;;5064740;27;45360;-75
2023/01/09 03:13:45;;;;;;;0.35;0.35;;;16.40;55.60;;;;;;5063840;28;46530;-75
2023/01/09 03:16:14;;;;;;;0.45;0.45;;;16.40;55.60;;;;;;5064209;27;45247;-76
2023/01/09 03:18:43;;;;;;;0.30;0.30;;;16.40;55.60;;;;;;5064260;28;45285;-75
2023/01/09 03:21:10;;;;;;;0.40;0.40;;;16.30;55.60;;;;;;5064374;28;45189;-77
2023/01/09 03:23:47;;;;;;;0.22;0.22;;;16.30;55.60;;;;;;5063863;27;46229;-75
2023/01/09 03:26:14;;;;;;;0.55;0.50;;;16.30;55.60;;;;;;5064031;27;45191;-75
2023/01/09 03:28:41;;;;;;;0.35;0.35;;;16.30;55.60;;;;;;5063933;28;45243;-75
2023/01/09 03:31:08;;;;;;;0.30;0.30;;;16.30;55.60;;;;;;5064259;28;45284;-77
2023/01/09 03:33:35;;;;;;;0.40;0.40;;;16.30;55.60;;;;;;5063705;28;45476;-77
2023/01/09 03:36:03;;;;;;;0.40;0.30;;;16.30;55.60;;;;;;5063863;28;45163;-76
2023/01/09 03:38:30;;;;;;;0.30;0.30;;;16.30;55.60;;;;;;5064206;27;45258;-77
2023/01/09 03:40:57;;;;;;;0.38;0.38;;;16.30;55.60;;;;;;5064166;28;45301;-77
2023/01/09 03:43:24;;;;;;;0.63;0.50;;;16.30;55.60;;;;;;5063482;28;46873;-77
2023/01/09 03:45:50;;;;;;;0.40;0.40;;;16.30;55.60;;;;;;5063765;28;45242;-77
2023/01/09 03:48:17;;;;;;;0.32;0.30;;;16.30;55.60;;;;;;5063818;28;45241;-77
2023/01/09 03:50:46;;;;;;;0.55;0.40;;;16.30;55.60;;;;;;5064435;28;45173;-76
2023/01/09 03:53:14;;;;;;;0.10;0.10;;;16.30;55.70;;;;;;5063692;28;45472;-77
2023/01/09 03:55:43;;;;;;;0.40;0.40;;;16.30;55.60;;;;;;5063243;28;45180;-77
2023/01/09 03:58:10;;;;;;;0.30;0.30;;;16.30;55.70;;;;;;5063696;28;45108;-77
2023/01/09 04:00:38;;;;;;;0.35;0.35;;;16.30;55.70;;;;;;5064101;28;45408;-77
2023/01/09 04:03:05;;;;;;;0.30;0.30;;;16.30;55.70;;;;;;5063463;28;45750;-77
2023/01/09 04:05:31;;;;;;;0.30;0.30;;;16.30;55.70;;;;;;5063744;28;45297;-77
2023/01/09 04:07:58;;;;;;;0.40;0.40;;;16.20;55.60;;;;;;5063804;28;45243;-77
2023/01/09 04:10:26;;;;;;;0.30;0.30;;;16.20;55.60;;;;;;5063963;28;45267;-77
2023/01/09 04:12:53;;;;;;;0.20;0.20;;;16.20;55.70;;;;;;5063358;28;46336;-77
2023/01/09 04:15:20;;;;;;;0.35;0.35;;;16.20;55.70;;;;;;5063090;28;45321;-75
2023/01/09 04:17:47;;;;;;;0.40;0.40;;;16.20;55.70;;;;;;5063522;28;45198;-75
2023/01/09 04:20:14;;;;;;;0.45;0.40;;;16.30;55.60;;;;;;5063861;28;45141;-75
2023/01/09 04:22:41;;;;;;;0.45;0.20;;;16.30;55.40;;;;;;5063556;28;45534;-75
2023/01/09 04:25:08;;;;;;;0.30;0.30;;;16.40;55.30;;;;;;5063555;28;45318;-75
2023/01/09 04:27:37;;;;;;;0.40;0.40;;;16.40;55.10;;;;;;5063323;28;45386;-75
2023/01/09 04:30:04;;;;;;;0.35;0.35;;;16.50;55.00;;;;;;5063915;27;45221;-75
2023/01/09 04:32:31;;;;;;;0.30;0.30;;;16.50;54.80;;;;;;5063126;28;46404;-75
2023/01/09 04:34:58;;;;;;;0.20;0.20;;;16.60;54.60;;;;;;5063238;28;45444;-76
2023/01/09 04:37:25;;;;;;;0.20;0.20;;;16.60;55.20;;;;;;5063415;28;45320;-75
2023/01/09 04:39:54;;;;;;;0.15;0.15;;;16.60;54.60;;;;;;5062812;28;45568;-75
2023/01/09 04:42:21;;;;;;;0.25;0.25;;;16.60;54.50;;;;;;5062934;28;46924;-78
2023/01/09 04:44:52;;;;;;;0.30;0.30;;;16.60;54.50;;;;;;5063028;28;45312;-75
2023/01/09 04:47:19;;;;;;;0.22;0.22;;;16.60;54.50;;;;;;5063066;28;45222;-75
2023/01/09 04:49:46;;;;;;;1.15;0.47;;;16.50;54.40;;;;;;5063666;28;45129;-75
2023/01/09 04:52:13;;;;;;;0.17;0.17;;;16.50;54.50;;;;;;5062835;28;45552;-78
2023/01/09 04:54:40;;;;;;;0.10;0.10;;;16.50;54.50;;;;;;5062918;28;45212;-77
2023/01/09 04:57:07;;;;;;;0.20;0.20;;;16.50;54.50;;;;;;5063274;28;45297;-77
2023/01/09 04:59:34;;;;;;;0.35;0.35;;;16.40;54.50;;;;;;5063220;27;45257;-77
2023/01/09 05:02:02;;;;;;;0.20;0.20;;;16.40;54.50;;;;;;5063055;28;45398;-77
2023/01/09 05:04:29;;;;;;;0.35;0.35;;;16.40;54.50;;;;;;5062743;28;45353;-75
2023/01/09 05:06:56;;;;;;;0.38;0.38;;;16.40;54.50;;;;;;5063104;28;45252;-76
2023/01/09 05:09:23;;;;;;;0.20;0.20;;;16.40;55.20;;;;;;5063284;28;45187;-76
2023/01/09 05:11:50;;;;;;;0.20;0.20;;;16.30;54.50;;;;;;5062580;27;45196;-76
2023/01/09 05:14:17;;;;;;;0.20;0.20;;;16.30;54.60;;;;;;5062454;28;45248;-76
2023/01/09 05:16:44;;;;;;;0.17;0.17;;;16.30;54.60;;;;;;5062726;28;45322;-76
2023/01/09 05:19:12;;;;;;;0.30;0.30;;;16.30;54.60;;;;;;5063105;28;45255;-76
2023/01/09 05:21:39;;;;;;;0.57;0.57;;;16.30;54.70;;;;;;5062408;28;46566;-75
2023/01/09 05:24:06;;;;;;;0.15;0.15;;;16.30;54.70;;;;;;5061883;28;45251;-76
2023/01/09 05:26:33;;;;;;;0.30;0.30;;;16.30;54.70;;;;;;5064539;28;45223;-76
2023/01/09 05:29:00;;;;;;;0.30;0.30;;;16.20;54.60;;;;;;5065643;28;45238;-76
2023/01/09 05:31:27;;;;;;;0.10;0.10;;;16.20;54.70;;;;;;5065582;28;45337;-74
2023/01/09 05:33:54;;;;;;;0.30;0.30;;;16.20;54.70;;;;;;5065984;28;45266;-74
2023/01/09 05:36:22;;;;;;;0.28;0.28;;;16.20;54.70;;;;;;5065511;28;45178;-74
2023/01/09 05:38:49;;;;;;;0.60;0.30;;;16.20;54.70;;;;;;5065986;28;45369;-76
2023/01/09 05:41:16;;;;;;;0.20;0.20;;;16.20;54.70;;;;;;5065192;27;46521;-74
2023/01/09 05:43:43;;;;;;;0.30;0.30;;;16.20;54.80;;;;;;5065661;28;45294;-74
2023/01/09 05:46:10;;;;;;;0.30;0.30;;;16.20;54.80;;;;;;5065315;27;45187;-73
2023/01/09 05:48:37;;;;;;;0.20;0.20;;;16.20;54.80;;;;;;5065513;27;45406;-74
2023/01/09 05:51:04;;;;;;;0.20;0.20;;;16.10;54.80;;;;;;5065613;28;45690;-74
2023/01/09 05:53:32;;;;;;;0.20;0.20;;;16.10;54.80;;;;;;5065243;28;45304;-74
2023/01/09 05:55:59;;;;;;;0.20;0.10;;;16.10;54.80;;;;;;5065781;28;45206;-75
2023/01/09 05:58:26;;;;;;;0.15;0.15;;;16.10;54.80;;;;;;5065651;27;45453;-74
2023/01/09 06:00:53;;;;;;;0.28;0.28;;;16.10;54.80;;;;;;5065282;28;47625;-74
2023/01/09 06:03:20;;;;;;;0.25;0.22;;;16.10;54.90;;;;;;5065280;28;45384;-73
2023/01/09 06:05:47;;;;;;;1.25;0.50;;;16.10;54.90;;;;;;5065176;28;45230;-75
2023/01/09 06:08:14;;;;;;;0.32;0.32;;;16.10;54.90;;;;;;5064904;28;45399;-74
2023/01/09 06:10:42;;;;;;;0.25;0.20;;;16.10;54.90;;;;;;5065737;28;46272;-74
2023/01/09 06:13:09;;;;;;;0.30;0.30;;;16.10;54.80;;;;;;5064953;27;45321;-75
2023/01/09 06:15:36;;;;;;;0.45;0.40;;;16.20;54.60;;;;;;5065382;28;45384;-75
2023/01/09 06:18:03;;;;;;;0.30;0.30;;;16.20;54.50;;;;;;5065269;27;45246;-76
2023/01/09 06:20:30;;;;;;;0.20;0.20;;;16.30;54.40;;;;;;5065052;28;46916;-76
2023/01/09 06:22:57;;;;;;;0.25;0.25;;;16.30;54.10;;;;;;5061058;28;45380;-75
2023/01/09 06:25:24;;;;;;;1.17;0.40;;;16.30;54.00;;;;;;5063484;28;45296;-75
2023/01/09 06:27:52;;;;;;;0.20;0.20;;;16.40;53.90;;;;;;5063440;27;45392;-76
2023/01/09 06:30:19;;;;;;;0.22;0.20;;;16.40;53.80;;;;;;5061714;27;46628;-76
2023/01/09 06:32:48;;;;;;;0.63;0.35;;;16.40;53.70;;;;;;5063767;27;45475;-75
2023/01/09 06:35:19;;;;;;;0.25;0.25;;;16.40;53.70;;;;;;5061494;28;45327;-75
2023/01/09 06:37:46;;;;;;;0.25;0.25;;;16.40;53.70;;;;;;5065235;28;45158;-75
2023/01/09 06:40:13;;;;;;;1.00;0.30;;;16.40;53.70;;;;;;5063696;28;47614;-75
2023/01/09 06:42:43;;;;;;;0.80;0.30;;;16.40;53.70;;;;;;5064269;28;45434;-74
2023/01/09 06:45:12;;;;;;;0.63;0.30;;;16.40;53.70;;;;;;5062614;27;45437;-74
2023/01/09 06:47:39;;;;;;;0.25;0.25;;;16.30;53.60;;;;;;5065037;27;45519;-76
2023/01/09 06:50:06;;;;;;;0.55;0.30;;;16.30;54.30;;;;;;5064928;28;46879;-76
2023/01/09 06:52:33;;;;;;;0.60;0.40;;;16.30;53.70;;;;;;5064826;27;45163;-75
2023/01/09 06:55:00;;;;;;;0.10;0.10;;;16.30;53.80;;;;;;5063987;28;45277;-76
2023/01/09 06:57:27;;;;;;;0.85;0.40;;;16.30;53.80;;;;;;5065096;28;45377;-75
2023/01/09 06:59:54;;;;;;;0.30;0.30;;;16.30;53.90;;;;;;5064701;28;45667;-75
2023/01/09 07:02:22;;;;;;;1.02;0.50;;;16.20;53.90;;;;;;5065188;28;45325;-76
2023/01/09 07:04:50;;;;;;;2.03;0.57;;;16.20;53.90;;;;;;5064812;28;45253;-75
2023/01/09 07:07:18;;;;;;;0.75;0.50;;;16.20;54.00;;;;;;5065152;28;45605;-75
2023/01/09 07:09:45;;;;;;;0.30;0.30;;;16.20;54.00;;;;;;5064474;28;46772;-75
2023/01/09 07:12:13;;;;;;;0.60;0.50;;;16.20;54.00;;;;;;5064721;28;45354;-75
2023/01/09 07:14:40;;;;;;;0.50;0.50;;;16.10;54.00;;;;;;5064623;27;45267;-75
2023/01/09 07:17:07;;;;;;;0.82;0.55;;;16.10;54.00;;;;;;5065076;28;45284;-75
2023/01/09 07:19:36;;;;;;;0.47;0.40;;;16.10;54.00;;;;;;5064406;28;45362;-75
2023/01/09 07:22:02;;;;;;;0.52;0.50;;;16.10;54.10;;;;;;5064528;28;45177;-76
2023/01/09 07:24:29;;;;;;;0.50;0.50;;;16.10;54.10;;;;;;5064335;28;45214;-76
2023/01/09 07:26:56;;;;;;;0.38;0.38;;;16.10;54.10;;;;;;5064729;28;45398;-76
2023/01/09 07:29:23;;;;;;;0.40;0.40;;;16.10;54.10;;;;;;5063947;28;45330;-74
2023/01/09 07:31:50;;;;;;;1.20;0.60;;;16.10;54.10;;;;;;5064077;28;45322;-75
2023/01/09 07:34:17;;;;;;;0.63;0.40;;;16.10;54.10;;;;;;5064239;28;45406;-74
2023/01/09 07:36:47;;;;;;;1.65;0.60;;;16.10;54.20;;;;;;5064320;28;45566;-75
2023/01/09 07:39:14;;;;;;;1.40;0.55;;;16.00;54.10;;;;;;5063242;28;46930;-76
2023/01/09 07:41:41;;;;;;;0.63;0.40;;;16.00;54.10;;;;;;5063998;28;45318;-75
2023/01/09 07:44:08;;;;;;;0.50;0.50;;;16.00;54.20;;;;;;5064094;28;45268;-75
2023/01/09 07:46:35;;;;;;;1.35;0.60;;;16.00;54.20;;;;;;5064254;28;45272;-74
2023/01/09 07:49:02;;;;;;;0.80;0.55;;;16.00;54.20;;;;;;5060473;28;46570;-75
2023/01/09 07:51:29;;;;;;;1.75;0.63;;;16.00;54.20;;;;;;5064000;28;45426;-75
2023/01/09 07:53:57;;;;;;;2.35;0.70;;;16.10;54.10;;;;;;5064156;28;45374;-74
2023/01/09 07:56:24;;;;;;;0.80;0.80;;;16.10;54.00;;;;;;5064239;27;45117;-75
2023/01/09 07:58:51;;;;;;;3.42;0.98;;;16.20;53.80;;;;;;5063788;28;45322;-74
2023/01/09 08:01:18;;;;;;;0.65;0.60;;;16.20;53.60;;;;;;5064142;28;45386;-75
2023/01/09 08:03:45;;;;;;;1.13;0.73;;;16.30;53.50;;;;;;5064025;27;45166;-74
2023/01/09 08:06:11;;;;;;;1.15;1.05;;;16.30;53.30;;;;;;5064356;28;45236;-76
2023/01/09 08:08:38;;;;;;;0.77;0.77;;;16.30;53.20;;;;;;5063833;28;45223;-75
2023/01/09 08:11:07;;;;;;;1.45;1.15;;;16.30;53.10;;;;;;5063941;28;45211;-76
2023/01/09 08:13:34;;;;;;;1.13;0.82;;;16.30;53.00;;;;;;5063673;28;45300;-76
2023/01/09 08:16:01;;;;;;;1.83;1.13;;;16.30;53.00;;;;;;5063566;28;45339;-75
2023/01/09 08:18:27;;;;;;;1.58;1.00;;;16.30;53.00;;;;;;5063683;28;46684;-75
2023/01/09 08:20:54;;;;;;;1.33;1.00;;;16.30;53.00;;;;;;5063003;28;45255;-74
2023/01/09 08:23:21;;;;;;;1.73;1.27;;;16.30;53.60;;;;;;5062818;28;45194;-75
2023/01/09 08:25:48;;;;;;;1.33;1.23;;;16.30;53.70;;;;;;5063683;28;45335;-74
2023/01/09 08:28:16;;;;;;;1.70;1.25;;;16.30;53.10;;;;;;5063087;27;46364;-75
2023/01/09 08:30:44;;;;;;;1.75;1.08;;;16.30;53.10;;;;;;5063520;27;45197;-74
2023/01/09 08:33:11;;;;;;;2.80;1.38;;;16.20;53.10;;;;;;5063505;28;45199;-76
2023/01/09 08:35:38;;;;;;;1.75;1.30;;;16.20;53.10;;;;;;5063640;28;45298;-76
2023/01/09 08:38:05;;;;;;;1.60;1.10;;;16.20;53.20;;;;;;5063216;28;46847;-76
2023/01/09 08:40:32;;;;;;;1.85;1.40;;;16.20;53.20;;;;;;5063445;28;45339;-76
2023/01/09 08:48:29;;;;;;;3.00;1.50;;;16.10;53.30;;;;;;5063760;28;45841;-76
2023/01/09 08:50:56;;;;;;;4.10;1.50;;;16.10;53.30;;;;;;5063424;28;45194;-76
2023/01/09 08:53:23;;;;;;;1.88;1.30;;;16.10;53.40;;;;;;5063078;27;45156;-76
2023/01/09 08:55:50;;;;;;;2.72;1.60;;;16.10;53.40;;;;;;5063619;28;45235;-76
2023/01/09 08:58:16;;;;;;;3.78;1.58;;;16.10;53.40;;;;;;5062854;28;46918;-76
2023/01/09 09:00:45;;;;;;;5.00;2.25;;;16.10;53.50;;;;;;5065146;27;45214;-76
2023/01/09 09:03:11;;;;;;;3.53;1.60;;;16.10;53.50;;;;;;5066436;27;45199;-78
2023/01/09 09:05:38;;;;;;;5.60;1.90;;;16.10;53.50;;;;;;5066289;28;45462;-76
2023/01/09 09:08:05;;;;;;;3.17;1.60;;;16.10;53.50;;;;;;5066241;28;45281;-76
2023/01/09 09:10:32;;;;;;;2.75;1.67;;;16.10;53.50;;;;;;5066076;27;45322;-76
2023/01/09 09:12:59;;;;;;;3.20;1.88;;;16.00;53.50;;;;;;5066207;28;45247;-75
2023/01/09 09:15:33;;;;;;;2.65;1.98;;;16.00;53.50;;;;;;5065546;27;45281;-76
2023/01/09 09:18:02;;;;;;;3.42;1.73;;;16.00;53.50;;;;;;5065134;27;46484;-76
2023/01/09 09:20:30;;;;;;;4.22;1.98;;;16.00;53.60;;;;;;5065697;27;45236;-76
2023/01/09 09:22:57;;;;;;;2.88;1.88;;;16.00;53.60;;;;;;5066179;27;45422;-76
2023/01/09 09:25:24;;;;;;;6.00;1.80;;;16.00;53.60;;;;;;5066236;27;45466;-76
2023/01/09 09:27:51;;;;;;;6.00;2.22;;;16.00;53.60;;;;;;5065802;28;45502;-76
2023/01/09 09:30:18;;;;;;;3.63;2.10;;;16.10;53.50;;;;;;5066038;28;45191;-76
2023/01/09 09:32:45;;;;;;;3.75;2.40;;;16.10;53.40;;;;;;5066230;27;45324;-76
2023/01/09 09:35:13;;;;;;;5.05;2.30;;;16.20;53.30;;;;;;5065868;28;45469;-76
2023/01/09 09:37:40;;;;;;;9.20;2.53;;;16.20;53.70;;;;;;5065616;28;46714;-76
2023/01/09 09:40:10;;;;;;;4.55;2.72;;;16.30;53.00;;;;;;5066049;28;45278;-76
2023/01/09 09:45:37;;;;;;;10.40;3.13;;;16.30;52.80;;;;;;5063577;28;45276;-76
2023/01/09 09:48:11;;;;;;;5.68;3.00;;;16.30;52.70;;;;;;5065540;27;46269;-76
2023/01/09 09:50:58;;;;;;;8.48;2.88;;;16.40;52.80;;;;;;5065842;28;45190;-76
2023/01/09 09:53:27;;;;;;;9.48;3.17;;;16.30;52.70;;;;;;5065987;28;45251;-76
2023/01/09 09:55:54;;;;;;;7.90;3.13;;;16.30;52.70;;;;;;5066105;28;45368;-76
2023/01/09 09:58:24;;;;;;;4.70;2.90;;;16.30;52.70;;;;;;5065661;28;47620;-75
2023/01/09 10:00:51;;;;;;;5.68;3.38;;;16.30;52.80;;;;;;5065517;28;45456;-76
2023/01/09 10:03:24;;;;;;;5.93;3.28;;;16.30;52.80;;;;;;5065747;28;45283;-76
2023/01/09 10:05:53;;;;;;;7.45;2.78;;;16.30;52.80;;;;;;5065847;28;45293;-76
2023/01/09 10:08:29;;;;;;;6.57;3.00;;;16.30;52.90;;;;;;5065511;28;45217;-75
2023/01/09 10:10:55;;;;;;;6.63;3.22;;;16.30;52.90;;;;;;5065281;27;45239;-76
2023/01/09 10:16:07;;;;;;;8.43;3.42;;;16.30;52.90;;;;;;5073725;27;45328;-75
2023/01/09 10:18:37;;;;;;;5.25;2.78;;;16.30;53.00;;;;;;5065343;28;46319;-75
2023/01/09 10:21:06;;;;;;;5.85;3.08;;;16.30;53.00;;;;;;5065388;28;45310;-75
2023/01/09 10:23:44;;;;;;;5.47;3.15;;;16.20;53.00;;;;;;5065329;27;45212;-76
2023/01/09 10:26:12;;;;;;;5.57;2.88;;;16.20;53.10;;;;;;5065466;27;45675;-75
2023/01/09 10:29:12;;;;;;;5.20;3.03;;;16.20;53.10;;;;;;5064638;28;47674;-73
2023/01/09 10:31:43;;;;;;;4.68;2.90;;;16.20;53.20;;;;;;5058340;27;45198;-76
2023/01/09 10:34:16;;;;;;;6.03;3.15;;;16.20;53.20;;;;;;5065450;28;45198;-76
2023/01/09 10:37:08;;;;;;;6.72;3.38;;;16.20;53.30;;;;;;5065570;27;45242;-75
2023/01/09 10:39:37;;;;;;;4.03;3.20;;;16.20;53.30;;;;;;5064844;28;47001;-75
2023/01/09 10:42:10;;;;;;;3.47;2.75;;;16.20;53.30;;;;;;5065213;28;45211;-75
2023/01/09 10:44:38;;;;;;;6.22;2.83;;;16.10;53.40;;;;;;5065207;27;45244;-75
2023/01/09 10:47:08;;;;;;;7.13;3.00;;;16.10;53.40;;;;;;5065362;28;45226;-76
2023/01/09 10:49:35;;;;;;;4.75;4.10;;;16.10;53.40;;;;;;5064842;27;45480;-75
2023/01/09 10:52:10;;;;;;;6.05;3.47;;;16.10;53.40;;;;;;5064401;27;45309;-74
2023/01/09 10:54:38;;;;;;;6.28;3.05;;;16.10;53.50;;;;;;5064539;28;45235;-75
2023/01/09 10:57:09;;;;;;;5.07;3.45;;;16.10;53.50;;;;;;5064311;27;45127;-75
2023/01/09 10:59:36;;;;;;;7.30;3.67;;;16.10;53.50;;;;;;5064726;28;48393;-76
2023/01/09 11:02:03;;;;;;;5.10;3.38;;;16.10;53.60;;;;;;5064688;28;45374;-76
2023/01/09 11:04:31;;;;;;;5.32;3.63;;;16.10;53.60;;;;;;5065103;28;45283;-75
2023/01/09 11:07:00;;;;;;;7.90;4.13;;;16.00;53.60;;;;;;5065368;28;45232;-76
2023/01/09 11:09:28;;;;;;;5.18;3.08;;;16.00;53.60;;;;;;5064542;27;45518;-76
2023/01/09 11:11:55;;;;;;;4.88;3.40;;;16.00;53.70;;;;;;5064582;28;45207;-76
2023/01/09 11:14:26;;;;;;;8.88;3.47;;;16.00;53.70;;;;;;5064945;28;45269;-77
2023/01/09 11:16:54;;;;;;;6.07;3.70;;;16.00;53.70;;;;;;5064662;28;45384;-77
2023/01/09 11:19:20;;;;;;;7.78;3.22;;;16.00;53.80;;;;;;5065162;28;46709;-78
2023/01/09 11:21:47;;;;;;;5.97;3.95;;;16.00;53.80;;;;;;5064826;28;45237;-78
2023/01/09 11:24:27;;;;;;;5.25;3.50;;;16.00;53.70;;;;;;5062968;28;45262;-76
2023/01/09 11:27:23;;;;;;;7.18;3.75;;;16.10;53.60;;;;;;5064924;28;45371;-76
2023/01/09 11:30:07;;;;;;;6.80;3.72;;;16.10;53.50;;;;;;5064167;28;47354;-76
2023/01/09 11:32:33;;;;;;;5.82;3.90;;;16.20;53.40;;;;;;5064723;28;45309;-76
2023/01/09 11:35:00;;;;;;;6.93;3.95;;;16.20;53.30;;;;;;5064496;27;45209;-76
2023/01/09 11:37:28;;;;;;;5.95;3.90;;;16.30;53.80;;;;;;5064775;28;45133;-76
2023/01/09 11:39:55;;;;;;;8.68;3.78;;;16.30;53.10;;;;;;5064183;28;47575;-76
2023/01/09 11:42:50;;;;;;;6.45;3.72;;;16.30;53.00;;;;;;5064255;28;45251;-76
2023/01/09 11:45:15;;;;;;;6.47;3.53;;;16.30;53.00;;;;;;5064384;27;45343;-76
2023/01/09 11:47:42;;;;;;;6.05;3.92;;;16.30;53.00;;;;;;5064389;28;45444;-76
2023/01/09 11:50:16;;;;;;;9.10;4.28;;;16.30;53.00;;;;;;5064185;27;45337;-76
2023/01/09 11:52:42;;;;;;;5.97;4.10;;;16.30;53.10;;;;;;5064372;28;45441;-75
2023/01/09 11:55:11;;;;;;;6.72;3.97;;;16.30;53.10;;;;;;5064333;27;45324;-77
2023/01/09 11:57:39;;;;;;;6.55;3.63;;;16.30;53.10;;;;;;5064693;27;45502;-77
2023/01/09 12:00:20;;;;;;;4.55;3.47;;;16.30;53.10;;;;;;5064152;28;46346;-78
2023/01/09 12:02:57;;;;;;;4.28;3.65;;;16.30;53.20;;;;;;5064302;27;45210;-76
2023/01/09 12:05:30;;;;;;;7.88;3.95;;;16.30;53.20;;;;;;5064218;28;45207;-76
2023/01/09 12:08:13;;;;;;;5.40;3.40;;;16.30;53.20;;;;;;5064551;27;45136;-76
2023/01/09 12:10:49;;;;;;;6.70;3.47;;;16.30;53.20;;;;;;5063706;28;46289;-76
2023/01/09 12:13:25;;;;;;;4.88;3.22;;;16.20;53.20;;;;;;5063821;28;45281;-76
2023/01/09 12:15:55;;;;;;;8.85;3.70;;;16.20;53.30;;;;;;5064037;27;45213;-76
2023/01/09 12:18:31;;;;;;;9.00;3.80;;;16.20;53.30;;;;;;5064164;28;45260;-76
2023/01/09 12:21:09;;;;;;;4.82;3.60;;;16.20;53.30;;;;;;5064327;28;47998;-76
2023/01/09 12:23:44;;;;;;;4.72;3.17;;;16.20;53.40;;;;;;5063864;28;45256;-76
2023/01/09 12:26:15;;;;;;;5.07;3.40;;;16.20;53.40;;;;;;5063773;27;45212;-78
2023/01/09 12:29:06;;;;;;;5.07;3.50;;;16.20;53.50;;;;;;5063741;28;45278;-76
2023/01/09 12:31:41;;;;;;;6.57;3.25;;;16.20;53.50;;;;;;5063235;28;46651;-77
2023/01/09 12:34:15;;;;;;;7.28;2.78;;;16.20;53.50;;;;;;5063465;28;45230;-78
2023/01/09 12:36:49;;;;;;;6.38;3.35;;;16.20;53.50;;;;;;5066817;27;45204;-77
2023/01/09 12:39:22;;;;;;;4.50;2.78;;;16.20;53.40;;;;;;5066976;28;45138;-77
2023/01/09 12:42:07;;;;;;;5.90;3.30;;;16.20;53.40;;;;;;5066377;28;46367;-77
2023/01/09 12:44:45;;;;;;;4.40;3.58;;;16.20;53.40;;;;;;5066122;27;45239;-77
2023/01/09 12:47:21;;;;;;;5.03;3.00;;;16.20;53.40;;;;;;5066854;27;45252;-77
2023/01/09 12:49:52;;;;;;;4.03;2.80;;;16.20;53.30;;;;;;5066758;27;45305;-77
2023/01/09 12:52:22;;;;;;;6.32;3.35;;;16.20;53.30;;;;;;5066509;28;46494;-77
2023/01/09 12:54:51;;;;;;;5.13;3.20;;;16.20;53.30;;;;;;5066252;28;45202;-77
2023/01/09 12:57:19;;;;;;;5.43;2.95;;;16.20;53.30;;;;;;5066128;28;45375;-76
2023/01/09 12:59:48;;;;;;;4.88;3.28;;;16.20;53.40;;;;;;5066391;27;45146;-76
2023/01/09 13:02:26;;;;;;;4.25;2.63;;;16.20;53.30;;;;;;5065941;28;45499;-75
2023/01/09 13:04:55;;;;;;;3.38;2.60;;;16.20;53.30;;;;;;5066135;27;45240;-76
2023/01/09 13:07:24;;;;;;;3.03;2.60;;;16.20;53.30;;;;;;5065995;27;45263;-76
2023/01/09 13:09:54;;;;;;;3.50;2.50;;;16.20;53.40;;;;;;5065836;28;45420;-76
2023/01/09 13:12:23;;;;;;;4.38;2.78;;;16.20;53.50;;;;;;5065912;28;45235;-76